Time;durP1;ratioP1;P1;durP2;ratioP2;P2;SDS_P1;SDS_P2;PMS_P1;PMS_P2;Temp;Humidity;BMP_temperature;BMP_pressure;BME280_temperature;BME280_humidity;BME280_pressure;Samples;Min_cycle;Max_cycle;Signal;HPM_P1;HPM_P2
2023/11/15 00:02:51;;;;;;;0.32;0.10;;;;;;;11.48;90.60;99371.25;10205774;28;20129;-64
2023/11/15 00:07:55;;;;;;;1.55;0.10;;;;;;;11.48;89.96;99373.94;10203425;28;20142;-66
2023/11/15 00:12:57;;;;;;;1.00;0.10;;;;;;;11.49;88.74;99375.59;10204156;28;20055;-66
2023/11/15 00:18:04;;;;;;;0.90;0.10;;;;;;;11.44;87.60;99380.53;10205211;28;20703;-66
2023/11/15 00:23:06;;;;;;;0.43;0.10;;;;;;;11.51;87.55;99389.63;10197914;28;20098;-66
2023/11/15 00:28:08;;;;;;;1.20;0.20;;;;;;;11.48;87.41;99401.44;10194105;28;20059;-66
2023/11/15 00:33:11;;;;;;;0.22;0.10;;;;;;;11.48;87.29;99416.56;10214611;28;20054;-66
2023/11/15 00:38:14;;;;;;;1.77;0.15;;;;;;;11.48;87.26;99421.91;10202787;28;20059;-66
2023/11/15 00:43:17;;;;;;;0.93;0.20;;;;;;;11.48;86.61;99428.09;10201077;28;20055;-66
2023/11/15 00:48:19;;;;;;;2.25;0.20;;;;;;;11.54;87.76;99458.59;10204796;28;20549;-66
2023/11/15 00:53:21;;;;;;;0.40;0.10;;;;;;;11.55;87.07;99464.78;10201730;28;20055;-66
2023/11/15 00:58:28;;;;;;;0.75;0.15;;;;;;;11.53;87.19;99478.28;10198532;28;20063;-65
2023/11/15 01:03:30;;;;;;;0.90;0.28;;;;;;;11.51;87.33;99474.91;10200497;28;20047;-65
2023/11/15 01:08:32;;;;;;;1.40;0.20;;;;;;;11.58;86.86;99502.63;10199815;28;20058;-65
2023/11/15 01:13:34;;;;;;;0.47;0.20;;;;;;;11.58;87.27;99512.47;10199217;28;20138;-64
2023/11/15 01:18:36;;;;;;;2.25;0.25;;;;;;;11.55;87.29;99512.78;10199555;28;20054;-65
2023/11/15 01:23:38;;;;;;;1.00;0.20;;;;;;;11.54;87.61;99524.41;10200591;28;20087;-66
2023/11/15 01:28:39;;;;;;;0.70;0.17;;;;;;;11.54;87.49;99538.56;10201457;28;20067;-65
2023/11/15 01:33:45;;;;;;;2.00;0.32;;;;;;;11.50;87.16;99545.19;10199156;28;20057;-63
2023/11/15 01:38:46;;;;;;;1.23;0.20;;;;;;;11.52;87.19;99561.03;10192881;28;20532;-65
2023/11/15 01:43:48;;;;;;;3.50;0.30;;;;;;;11.47;87.56;99570.31;10207096;28;20054;-64
2023/11/15 01:48:50;;;;;;;2.05;0.35;;;;;;;11.47;88.55;99564.97;10202018;28;20047;-66
2023/11/15 01:53:51;;;;;;;1.25;0.35;;;;;;;11.49;88.91;99579.00;10200592;28;20668;-65
2023/11/15 01:58:53;;;;;;;2.08;0.30;;;;;;;11.47;89.02;99594.28;10198578;28;20062;-65
2023/11/15 02:03:54;;;;;;;0.95;0.30;;;;;;;11.44;89.14;99604.38;10221128;28;20054;-66
2023/11/15 02:08:58;;;;;;;0.90;0.20;;;;;;;11.52;89.18;99607.19;10204448;28;20058;-64
2023/11/15 02:14:00;;;;;;;1.95;0.30;;;;;;;11.55;88.90;99609.56;10210949;28;21342;-66
2023/11/15 02:19:02;;;;;;;1.83;0.50;;;;;;;11.54;88.27;99612.38;10205102;28;20087;-66
2023/11/15 02:24:04;;;;;;;2.08;0.50;;;;;;;11.58;88.04;99619.94;10208175;28;20051;-65
2023/11/15 02:29:05;;;;;;;2.05;0.40;;;;;;;11.59;87.56;99637.59;10214603;28;20051;-65
2023/11/15 02:34:09;;;;;;;1.50;0.10;;;;;;;11.64;88.06;99640.66;10207238;28;20493;-65
2023/11/15 02:39:11;;;;;;;3.33;0.30;;;;;;;11.57;88.51;99641.38;10205333;28;20325;-64
2023/11/15 02:44:13;;;;;;;2.97;0.73;;;;;;;11.55;89.34;99641.53;10207851;28;20054;-65
2023/11/15 02:49:14;;;;;;;2.20;0.30;;;;;;;11.43;89.17;99643.53;10209900;28;20054;-66
2023/11/15 02:54:16;;;;;;;3.00;0.85;;;;;;;11.45;90.97;99656.72;10202180;28;20055;-67
2023/11/15 02:59:17;;;;;;;1.98;0.47;;;;;;;11.47;91.44;99662.75;10205969;28;20100;-66
2023/11/15 03:04:19;;;;;;;2.85;0.28;;;;;;;11.43;92.05;99667.50;10207212;28;20055;-65
2023/11/15 03:09:21;;;;;;;2.85;0.50;;;;;;;11.46;92.24;99679.72;10206218;28;20052;-65
2023/11/15 03:14:22;;;;;;;2.85;0.65;;;;;;;11.52;92.29;99688.97;10203902;28;20174;-65
2023/11/15 03:19:24;;;;;;;2.38;0.32;;;;;;;11.44;91.20;99689.66;10205697;28;20051;-65
2023/11/15 03:24:26;;;;;;;2.95;0.85;;;;;;;11.50;91.13;99697.13;10203987;28;20749;-66
2023/11/15 03:29:27;;;;;;;2.42;0.50;;;;;;;11.48;90.50;99696.41;10210110;28;20051;-66
2023/11/15 03:34:29;;;;;;;3.22;0.65;;;;;;;11.42;90.40;99705.78;10203576;28;20055;-65
2023/11/15 03:39:31;;;;;;;3.65;0.70;;;;;;;11.50;91.30;99713.09;10200637;28;20518;-66
2023/11/15 03:44:33;;;;;;;5.00;0.82;;;;;;;11.51;90.88;99714.75;10205589;28;20051;-65
2023/11/15 03:49:34;;;;;;;3.55;0.70;;;;;;;11.55;90.56;99720.66;10208135;28;20051;-67
2023/11/15 03:54:36;;;;;;;3.83;0.65;;;;;;;11.53;88.70;99730.63;10203021;28;20718;-66
2023/11/15 03:59:37;;;;;;;2.00;0.70;;;;;;;11.47;88.11;99729.38;10206210;28;20054;-66
2023/11/15 04:04:39;;;;;;;3.70;0.40;;;;;;;11.55;88.19;99737.50;10208366;28;20062;-67
2023/11/15 04:09:41;;;;;;;2.85;0.80;;;;;;;11.57;87.31;99742.69;10203978;28;20260;-67
2023/11/15 04:14:43;;;;;;;4.15;0.68;;;;;;;11.49;86.16;99738.06;10202068;28;20713;-66
2023/11/15 04:19:44;;;;;;;3.13;0.70;;;;;;;11.57;86.25;99754.19;10198526;28;20693;-66
2023/11/15 04:24:46;;;;;;;1.65;0.40;;;;;;;11.61;86.22;99762.75;10198958;28;20722;-66
2023/11/15 04:29:47;;;;;;;2.60;0.40;;;;;;;11.57;85.76;99764.00;10206337;28;20138;-66
2023/11/15 04:34:48;;;;;;;2.17;0.47;;;;;;;11.55;85.74;99779.31;10198483;28;20137;-66
2023/11/15 04:39:51;;;;;;;2.75;0.50;;;;;;;11.54;85.67;99781.13;10214379;28;20064;-64
2023/11/15 04:44:52;;;;;;;2.22;0.40;;;;;;;11.49;86.00;99778.88;10229750;28;20118;-65
2023/11/15 04:49:54;;;;;;;1.13;0.40;;;;;;;11.46;86.65;99781.00;10227865;28;20055;-66
2023/11/15 04:54:56;;;;;;;3.92;0.65;;;;;;;11.50;86.88;99782.41;10209164;28;20048;-66
2023/11/15 04:59:57;;;;;;;1.70;0.20;;;;;;;11.48;87.10;99784.34;10197554;28;20122;-66
2023/11/15 05:04:59;;;;;;;3.90;0.47;;;;;;;11.40;87.34;99770.91;10197615;28;20051;-66
2023/11/15 05:10:04;;;;;;;6.28;0.47;;;;;;;11.43;87.41;99797.28;10197472;28;20055;-65
2023/11/15 05:15:06;;;;;;;2.70;0.47;;;;;;;11.40;87.61;99792.22;10207932;28;20051;-66
2023/11/15 05:20:10;;;;;;;4.38;1.13;;;;;;;11.39;86.69;99794.03;10199055;28;20530;-66
2023/11/15 05:25:12;;;;;;;2.35;0.50;;;;;;;11.39;87.16;99807.34;10201877;28;20058;-67
2023/11/15 05:30:15;;;;;;;3.03;0.40;;;;;;;11.37;87.43;99814.66;10211221;28;20117;-66
2023/11/15 05:35:17;;;;;;;2.40;0.60;;;;;;;11.40;87.79;99826.88;10212426;28;20695;-66
2023/11/15 05:40:19;;;;;;;2.90;0.65;;;;;;;11.36;88.00;99836.94;10210173;28;20075;-66
2023/11/15 05:45:20;;;;;;;2.85;0.90;;;;;;;11.42;87.24;99838.22;10207064;28;20675;-66
2023/11/15 05:50:22;;;;;;;3.40;0.98;;;;;;;11.42;87.37;99849.72;10205831;28;20118;-67
2023/11/15 05:55:23;;;;;;;2.92;0.40;;;;;;;11.38;87.34;99858.13;10207741;28;20072;-67
2023/11/15 06:00:25;;;;;;;4.40;0.55;;;;;;;11.35;87.00;99858.41;10211281;28;20424;-65
2023/11/15 06:05:26;;;;;;;4.22;0.90;;;;;;;11.34;87.55;99856.72;10212746;28;20071;-66
2023/11/15 06:10:28;;;;;;;5.20;1.05;;;;;;;11.42;86.83;99870.19;10210555;28;20045;-65
2023/11/15 06:15:29;;;;;;;3.55;0.90;;;;;;;11.41;87.04;99857.84;10206397;28;20134;-66
2023/11/15 06:20:30;;;;;;;5.45;1.02;;;;;;;11.35;87.18;99853.94;10212707;28;20055;-65
2023/11/15 06:25:34;;;;;;;5.85;1.40;;;;;;;11.41;86.58;99860.50;10211039;28;20065;-66
2023/11/15 06:30:35;;;;;;;4.20;0.77;;;;;;;11.39;86.44;99870.47;10209116;28;20050;-64
2023/11/15 06:35:37;;;;;;;5.72;0.80;;;;;;;11.40;86.60;99872.16;10204982;28;20533;-66
2023/11/15 06:40:39;;;;;;;5.63;0.98;;;;;;;11.36;86.50;99876.91;10211804;28;20057;-66
2023/11/15 06:45:40;;;;;;;4.97;1.52;;;;;;;11.36;86.27;99873.41;10205038;28;20047;-66
2023/11/15 06:50:42;;;;;;;3.28;0.88;;;;;;;11.36;85.98;99871.59;10205949;28;20059;-64
2023/11/15 06:55:44;;;;;;;3.05;0.90;;;;;;;11.39;85.98;99894.47;10220212;28;20059;-65
2023/11/15 07:00:47;;;;;;;4.13;0.82;;;;;;;11.36;85.70;99892.91;10195315;28;20066;-66
2023/11/15 07:05:49;;;;;;;6.38;1.55;;;;;;;11.34;85.14;99896.72;10223139;28;20062;-65
2023/11/15 07:10:52;;;;;;;5.63;1.67;;;;;;;11.37;85.47;99915.09;10204393;28;20588;-65
2023/11/15 07:15:53;;;;;;;3.50;1.27;;;;;;;11.36;85.69;99926.72;10205764;28;20168;-65
2023/11/15 07:20:55;;;;;;;4.72;1.20;;;;;;;11.44;85.88;99934.84;10206716;28;20055;-66
2023/11/15 07:25:56;;;;;;;1.90;0.68;;;;;;;11.50;85.61;99942.31;10208006;28;21255;-66
2023/11/15 07:30:59;;;;;;;5.18;1.38;;;;;;;11.45;84.71;99947.22;10200289;28;20178;-65
2023/11/15 07:36:01;;;;;;;4.40;1.10;;;;;;;11.54;85.05;99950.88;10215135;28;20058;-66
2023/11/15 07:41:02;;;;;;;6.57;1.25;;;;;;;11.56;84.05;99955.09;10202976;28;20623;-66
2023/11/15 07:46:09;;;;;;;6.97;1.33;;;;;;;11.65;85.05;99966.78;10203635;28;20553;-67
2023/11/15 07:51:11;;;;;;;4.22;1.35;;;;;;;11.71;83.83;99976.03;10202822;28;20051;-68
2023/11/15 07:56:13;;;;;;;3.33;1.17;;;;;;;11.76;83.32;99984.47;10206043;28;20059;-66
2023/11/15 08:01:14;;;;;;;8.73;1.33;;;;;;;11.76;83.18;99987.13;10205783;28;20150;-67
2023/11/15 08:06:16;;;;;;;5.47;1.25;;;;;;;11.83;83.77;100002.44;10205333;28;20055;-66
2023/11/15 08:11:17;;;;;;;3.78;0.98;;;;;;;11.86;82.79;100012.00;10208595;28;20181;-65
2023/11/15 08:16:22;;;;;;;5.35;0.90;;;;;;;11.84;83.11;100013.94;10208031;28;20063;-66
2023/11/15 08:21:24;;;;;;;7.50;2.65;;;;;;;11.84;83.55;100019.28;10213904;28;20185;-67
2023/11/15 08:26:26;;;;;;;6.05;1.10;;;;;;;11.84;82.80;100029.94;10205792;28;20043;-66
2023/11/15 08:31:28;;;;;;;5.18;1.63;;;;;;;11.87;83.06;100024.31;10204856;28;20055;-65
2023/11/15 08:36:30;;;;;;;5.10;1.17;;;;;;;11.97;83.37;100037.72;10202397;28;20054;-66
2023/11/15 08:41:31;;;;;;;4.32;1.65;;;;;;;12.01;82.11;100039.97;10216949;28;20059;-65
2023/11/15 08:46:34;;;;;;;3.45;1.05;;;;;;;11.94;82.43;100030.84;10213294;28;20046;-65
2023/11/15 08:51:35;;;;;;;4.28;1.02;;;;;;;11.95;81.74;100040.53;10201551;28;20504;-66
2023/11/15 08:56:40;;;;;;;6.57;0.95;;;;;;;11.97;80.98;100033.22;10202559;28;20369;-66
2023/11/15 09:01:44;;;;;;;6.63;1.10;;;;;;;12.12;80.67;100043.50;10199397;28;20508;-67
2023/11/15 09:06:52;;;;;;;2.33;1.00;;;;;;;12.11;80.30;100060.50;10202121;28;20063;-67
2023/11/15 09:11:56;;;;;;;5.57;1.60;;;;;;;12.18;79.08;100059.78;10200877;28;20179;-67
2023/11/15 09:16:58;;;;;;;;;;;;;;;12.30;79.48;100078.38;10201414;28;20063;-67
2023/11/15 09:22:03;;;;;;;6.00;1.45;;;;;;;12.38;78.83;100079.34;10198762;28;19950;-66
2023/11/15 09:27:06;;;;;;;6.68;1.48;;;;;;;12.44;78.68;100074.44;10200418;28;20125;-68
2023/11/15 09:32:10;;;;;;;4.47;1.42;;;;;;;12.53;78.48;100084.25;10202527;28;20330;-65
2023/11/15 09:37:13;;;;;;;4.55;1.13;;;;;;;12.75;77.54;100074.28;10200589;28;20598;-67
2023/11/15 09:42:19;;;;;;;6.43;1.08;;;;;;;13.12;76.10;100084.19;10199155;28;20571;-66
2023/11/15 09:47:20;;;;;;;3.65;0.90;;;;;;;13.52;74.73;100085.81;10194590;28;20055;-65
2023/11/15 09:52:24;;;;;;;4.43;0.73;;;;;;;13.91;72.29;100086.47;10213488;28;20078;-66
2023/11/15 09:57:26;;;;;;;3.05;0.98;;;;;;;14.32;70.86;100086.91;10201356;28;20055;-66
2023/11/15 10:02:32;;;;;;;5.28;0.70;;;;;;;14.71;69.61;100088.47;10202597;28;20602;-67
2023/11/15 10:07:35;;;;;;;5.47;1.00;;;;;;;14.73;69.24;100082.97;10202079;28;20059;-68
2023/11/15 10:12:37;;;;;;;5.38;0.82;;;;;;;14.91;68.32;100099.03;10214773;28;20054;-66
2023/11/15 10:17:42;;;;;;;4.28;0.77;;;;;;;14.52;70.32;100113.56;10203044;28;20063;-67
2023/11/15 10:22:46;;;;;;;3.20;0.47;;;;;;;14.49;71.14;100112.00;10201158;28;20043;-66
2023/11/15 10:27:51;;;;;;;2.45;1.10;;;;;;;14.37;69.82;100102.53;10208697;28;20056;-67
2023/11/15 10:33:10;;;;;;;6.50;1.30;;;;;;;14.90;69.04;100116.09;10208256;28;20086;-66
2023/11/15 10:38:19;;;;;;;2.53;0.60;;;;;;;14.78;69.53;100123.53;10203534;28;20146;-67
2023/11/15 10:43:20;;;;;;;2.70;1.08;;;;;;;15.37;66.16;100119.28;10209715;28;20044;-67
2023/11/15 10:48:25;;;;;;;3.63;1.10;;;;;;;16.31;63.36;100113.19;10213525;28;20055;-68
2023/11/15 10:53:28;;;;;;;2.33;0.40;;;;;;;16.76;62.61;100101.16;10168950;28;20054;-67
2023/11/15 10:58:39;;;;;;;2.17;0.50;;;;;;;17.56;57.97;100088.78;10206160;28;20047;-68
2023/11/15 11:03:41;;;;;;;2.72;0.55;;;;;;;17.82;57.54;100091.25;10204910;28;20154;-67
2023/11/15 11:08:48;;;;;;;6.55;0.70;;;;;;;17.30;57.91;100093.41;10206735;28;20529;-65
2023/11/15 11:14:16;;;;;;;4.00;0.50;;;;;;;16.84;59.01;100093.06;10210583;28;20055;-67
2023/11/15 11:19:22;;;;;;;3.50;0.90;;;;;;;16.92;58.66;100085.06;10222019;28;20073;-67
2023/11/15 11:24:24;;;;;;;1.77;0.30;;;;;;;17.46;57.71;100083.63;10209595;28;20047;-66
2023/11/15 11:29:30;;;;;;;4.10;0.57;;;;;;;17.80;55.94;100087.88;10205415;28;20539;-68
2023/11/15 11:34:34;;;;;;;1.63;0.75;;;;;;;18.23;55.93;100087.53;10207474;28;20686;-66
2023/11/15 11:39:46;;;;;;;1.15;0.30;;;;;;;18.82;53.18;100085.06;10209749;28;20047;-67
2023/11/15 11:44:54;;;;;;;4.05;0.40;;;;;;;19.02;51.43;100077.34;10206322;28;20552;-67
2023/11/15 11:49:57;;;;;;;1.73;0.40;;;;;;;19.41;50.40;100086.22;10200921;28;20057;-65
2023/11/15 11:55:00;;;;;;;1.77;0.32;;;;;;;19.78;49.48;100076.38;10211526;28;20146;-66
2023/11/15 12:00:11;;;;;;;3.40;1.03;;;;;;;20.13;49.17;100082.84;10203872;28;20162;-68
2023/11/15 12:05:21;;;;;;;1.85;0.52;;;;;;;20.47;47.44;100065.09;10204382;28;21257;-67
2023/11/15 12:10:24;;;;;;;1.65;0.60;;;;;;;18.79;52.16;100068.41;10205108;28;20058;-65
2023/11/15 12:15:27;;;;;;;3.08;0.70;;;;;;;17.80;52.85;100066.31;10205360;28;20070;-65
2023/11/15 12:20:34;;;;;;;4.07;1.02;;;;;;;17.06;55.04;100069.25;10205418;28;20062;-66
2023/11/15 12:25:49;;;;;;;3.05;0.60;;;;;;;16.73;55.33;100062.00;10207575;28;20232;-65
2023/11/15 12:30:52;;;;;;;4.95;1.30;;;;;;;16.36;56.93;100057.13;10218424;28;20054;-65
2023/11/15 12:35:54;;;;;;;1.83;0.60;;;;;;;18.21;51.18;100052.69;10208394;28;20061;-66
2023/11/15 12:41:03;;;;;;;4.38;0.47;;;;;;;20.06;46.17;100054.06;10207718;28;20070;-71
2023/11/15 12:46:16;;;;;;;2.72;0.68;;;;;;;21.24;43.51;100053.69;10207654;28;20043;-70
2023/11/15 12:51:22;;;;;;;;;;;;;;;21.02;43.71;100057.28;10208424;28;20051;-69
2023/11/15 12:56:23;;;;;;;2.88;0.80;;;;;;;22.50;40.49;100056.09;10202502;28;19936;-67
2023/11/15 13:01:27;;;;;;;2.78;0.60;;;;;;;23.53;37.98;100052.09;10199468;28;20549;-66
2023/11/15 13:06:35;;;;;;;3.40;0.73;;;;;;;23.23;38.35;100052.56;10195471;28;20051;-67
2023/11/15 13:11:38;;;;;;;1.77;0.60;;;;;;;23.14;37.81;100055.72;10203696;28;20143;-68
2023/11/15 13:16:40;;;;;;;;;;;;;;;22.22;39.95;100065.22;10203559;28;20481;-68
2023/11/15 13:21:44;;;;;;;1.67;0.40;;;;;;;20.27;43.11;100058.66;10214378;28;19923;-68
2023/11/15 13:26:49;;;;;;;4.25;0.70;;;;;;;18.65;47.24;100052.00;10198139;28;20169;-68
2023/11/15 13:31:52;;;;;;;1.85;0.47;;;;;;;17.31;50.86;100068.19;10209314;28;20058;-68
2023/11/15 13:36:54;;;;;;;1.13;0.40;;;;;;;16.51;53.86;100086.84;10200304;28;20497;-68
2023/11/15 13:41:56;;;;;;;1.15;0.43;;;;;;;16.21;57.39;100107.94;10199296;28;25179;-66
2023/11/15 13:46:59;;;;;;;1.17;0.77;;;;;;;15.75;58.28;100105.59;10206410;28;20051;-67
2023/11/15 13:52:01;;;;;;;0.88;0.10;;;;;;;15.48;58.17;100107.44;10204517;28;20398;-67
2023/11/15 13:57:04;;;;;;;2.47;0.38;;;;;;;15.30;60.93;100120.09;10205030;28;21566;-64
2023/11/15 14:02:07;;;;;;;1.65;0.28;;;;;;;15.20;61.58;100109.44;10228518;28;20062;-66
2023/11/15 14:07:08;;;;;;;3.80;0.20;;;;;;;15.05;62.21;100114.53;10209442;28;20118;-66
2023/11/15 14:12:11;;;;;;;3.42;0.55;;;;;;;15.17;61.25;100110.59;10211167;28;20851;-64
2023/11/15 14:17:13;;;;;;;3.05;0.20;;;;;;;15.33;58.89;100115.25;10212095;28;20700;-67
2023/11/15 14:22:14;;;;;;;2.97;0.50;;;;;;;15.07;59.61;100130.47;10207807;28;20806;-64
2023/11/15 14:27:16;;;;;;;1.45;0.30;;;;;;;14.82;60.37;100141.81;10208600;28;20047;-66
2023/11/15 14:32:17;;;;;;;1.65;0.28;;;;;;;14.65;60.50;100145.34;10210161;28;20053;-65
2023/11/15 14:37:19;;;;;;;2.78;0.30;;;;;;;14.33;61.81;100155.53;10207334;28;20079;-65
2023/11/15 14:42:20;;;;;;;1.58;0.20;;;;;;;14.31;61.67;100168.22;10194044;28;20133;-67
2023/11/15 14:47:22;;;;;;;2.33;0.35;;;;;;;14.15;62.97;100168.03;10217136;28;20078;-66
2023/11/15 14:52:25;;;;;;;2.20;0.40;;;;;;;14.28;63.04;100171.22;10203726;28;20052;-67
2023/11/15 14:57:28;;;;;;;1.60;0.10;;;;;;;14.34;62.97;100183.16;10209082;28;20135;-66
2023/11/15 15:02:30;;;;;;;1.08;0.20;;;;;;;14.05;64.32;100181.47;10212394;28;20278;-67
2023/11/15 15:07:32;;;;;;;1.80;0.68;;;;;;;13.87;65.51;100178.75;10212724;28;20054;-66
2023/11/15 15:12:41;;;;;;;1.83;0.52;;;;;;;13.75;67.12;100191.44;10207336;28;20073;-66
2023/11/15 15:17:44;;;;;;;1.45;0.43;;;;;;;13.69;67.31;100202.72;10204976;28;20138;-67
2023/11/15 15:22:46;;;;;;;3.55;0.52;;;;;;;13.57;68.06;100191.34;10195935;28;20512;-66
2023/11/15 15:27:49;;;;;;;1.40;0.65;;;;;;;13.54;68.31;100207.69;10218468;28;20043;-66
2023/11/15 15:32:50;;;;;;;1.80;0.52;;;;;;;13.42;69.10;100204.34;10218888;28;20200;-68
2023/11/15 15:37:52;;;;;;;1.73;0.68;;;;;;;13.26;69.62;100220.06;10205223;28;20051;-66
2023/11/15 15:42:55;;;;;;;2.67;0.75;;;;;;;13.26;70.35;100220.06;10206971;28;20645;-66
2023/11/15 15:47:57;;;;;;;1.70;0.45;;;;;;;13.25;70.06;100223.72;10207051;28;20143;-65
2023/11/15 15:53:00;;;;;;;5.38;1.08;;;;;;;13.10;69.75;100231.31;10212938;28;20115;-66
2023/11/15 15:58:01;;;;;;;3.03;0.70;;;;;;;13.05;69.99;100226.41;10200536;28;20150;-65
2023/11/15 16:03:03;;;;;;;2.67;0.70;;;;;;;12.96;70.40;100221.91;10215231;28;20078;-66
2023/11/15 16:08:05;;;;;;;2.00;0.50;;;;;;;12.97;70.95;100239.63;10206119;28;20584;-66
2023/11/15 16:13:07;;;;;;;3.95;0.80;;;;;;;12.85;72.01;100249.59;10192537;28;20055;-68
2023/11/15 16:18:08;;;;;;;1.92;0.68;;;;;;;12.80;72.81;100251.81;10202044;28;20058;-66
2023/11/15 16:23:10;;;;;;;2.72;0.95;;;;;;;12.80;73.39;100254.50;10202291;28;20202;-66
2023/11/15 16:28:12;;;;;;;3.58;1.42;;;;;;;12.76;73.85;100255.78;10204573;28;20141;-66
2023/11/15 16:33:14;;;;;;;4.97;1.42;;;;;;;12.80;73.74;100256.34;10207962;28;21286;-66
2023/11/15 16:38:16;;;;;;;2.97;1.00;;;;;;;12.72;73.55;100265.88;10204014;28;20134;-67
2023/11/15 16:43:19;;;;;;;5.38;1.60;;;;;;;12.64;73.61;100263.06;10211314;28;20063;-66
2023/11/15 16:48:24;;;;;;;3.03;1.30;;;;;;;12.44;73.76;100272.81;10212531;28;20134;-66
2023/11/15 16:53:26;;;;;;;4.55;2.50;;;;;;;12.43;73.59;100283.63;10208964;28;20051;-67
2023/11/15 16:58:27;;;;;;;3.47;1.63;;;;;;;12.47;73.64;100291.22;10203552;28;20110;-66
2023/11/15 17:03:28;;;;;;;6.55;1.73;;;;;;;12.46;73.30;100292.22;10202693;28;20062;-66
2023/11/15 17:08:31;;;;;;;3.05;0.98;;;;;;;12.32;73.22;100301.41;10206502;28;20213;-66
2023/11/15 17:13:34;;;;;;;3.88;1.50;;;;;;;12.28;73.20;100305.34;10200927;28;20616;-66
2023/11/15 17:18:35;;;;;;;4.60;1.30;;;;;;;12.21;73.26;100309.53;10217807;28;20062;-66
2023/11/15 17:23:40;;;;;;;3.20;1.52;;;;;;;12.22;73.01;100323.72;10204926;28;20058;-66
2023/11/15 17:28:43;;;;;;;3.10;1.20;;;;;;;12.21;72.68;100325.53;10203549;28;20082;-66
2023/11/15 17:33:45;;;;;;;3.83;1.23;;;;;;;12.22;73.43;100316.56;10215947;28;20498;-66
2023/11/15 17:38:46;;;;;;;2.80;1.33;;;;;;;12.15;73.52;100299.38;10215718;28;20058;-68
2023/11/15 17:43:48;;;;;;;4.50;1.63;;;;;;;12.15;73.99;100326.06;10217287;28;20047;-66
2023/11/15 17:48:50;;;;;;;2.58;1.25;;;;;;;12.16;74.51;100309.94;10215337;28;20054;-67
2023/11/15 17:53:53;;;;;;;4.88;1.60;;;;;;;12.15;74.92;100304.72;10214818;28;20126;-66
2023/11/15 17:58:55;;;;;;;4.07;1.95;;;;;;;12.14;76.40;100305.69;10217155;28;20187;-67
2023/11/15 18:03:56;;;;;;;6.30;1.75;;;;;;;11.95;77.47;100285.94;10213457;28;20955;-67
2023/11/15 18:09:00;;;;;;;6.32;3.08;;;;;;;12.02;77.97;100319.13;10218427;28;21242;-67
2023/11/15 18:14:02;;;;;;;6.68;2.20;;;;;;;11.99;78.67;100307.84;10217030;28;20409;-67
2023/11/15 18:19:07;;;;;;;4.13;1.63;;;;;;;11.87;79.82;100315.06;10207766;28;20518;-68
2023/11/15 18:24:11;;;;;;;7.65;2.30;;;;;;;11.78;80.53;100307.84;10211525;28;20044;-66
2023/11/15 18:29:13;;;;;;;8.73;2.28;;;;;;;11.72;81.79;100313.69;10212234;28;20047;-65
2023/11/15 18:34:15;;;;;;;4.97;2.40;;;;;;;11.72;82.09;100319.03;10211477;28;20110;-66
2023/11/15 18:39:20;;;;;;;7.57;2.22;;;;;;;11.68;81.98;100319.28;10213433;28;20059;-66
2023/11/15 18:44:22;;;;;;;6.97;1.98;;;;;;;11.62;82.24;100332.25;10207267;28;20058;-66
2023/11/15 18:49:24;;;;;;;7.43;2.15;;;;;;;11.61;82.26;100339.44;10218860;28;20142;-67
2023/11/15 18:54:28;;;;;;;5.38;1.95;;;;;;;11.61;82.13;100339.44;10208493;28;20063;-67
2023/11/15 18:59:33;;;;;;;7.45;2.33;;;;;;;11.55;81.84;100341.78;10198219;28;20087;-65
2023/11/15 19:04:36;;;;;;;6.20;2.05;;;;;;;11.52;82.13;100342.03;10219583;28;20054;-66
2023/11/15 19:09:38;;;;;;;5.38;1.90;;;;;;;11.54;82.13;100346.25;10205602;28;20055;-65
2023/11/15 19:14:39;;;;;;;6.07;2.10;;;;;;;11.51;83.26;100343.81;10202808;28;20054;-70
2023/11/15 19:19:41;;;;;;;6.28;2.50;;;;;;;11.52;83.19;100348.19;10217513;28;20046;-68
2023/11/15 19:24:43;;;;;;;4.57;1.92;;;;;;;11.56;83.35;100343.44;10205100;28;20060;-68
2023/11/15 19:29:48;;;;;;;6.18;1.50;;;;;;;11.57;84.08;100332.66;10210308;28;20047;-66
2023/11/15 19:34:50;;;;;;;3.67;1.23;;;;;;;11.65;82.93;100330.22;10202572;28;20069;-69
2023/11/15 19:39:56;;;;;;;3.92;1.92;;;;;;;11.59;82.61;100313.88;10204783;28;20051;-66
2023/11/15 19:44:59;;;;;;;3.77;1.93;;;;;;;11.56;82.60;100319.44;10200314;28;20122;-66
2023/11/15 19:50:01;;;;;;;5.18;2.22;;;;;;;11.60;83.16;100327.06;10204575;28;20300;-66
2023/11/15 19:55:07;;;;;;;7.43;1.75;;;;;;;11.49;83.60;100329.78;10208311;28;20441;-65
2023/11/15 20:00:12;;;;;;;4.32;1.13;;;;;;;11.55;83.88;100329.28;10184921;28;20517;-67
2023/11/15 20:05:16;;;;;;;3.17;1.20;;;;;;;11.59;83.83;100336.06;10207352;28;20047;-66
2023/11/15 20:10:18;;;;;;;5.35;1.35;;;;;;;11.59;84.01;100336.06;10203913;28;20102;-67
2023/11/15 20:15:29;;;;;;;3.83;1.42;;;;;;;11.54;85.02;100338.25;10208073;28;20127;-66
2023/11/15 20:20:31;;;;;;;4.20;1.60;;;;;;;11.52;85.37;100339.38;10206353;28;20660;-66
2023/11/15 20:25:33;;;;;;;6.22;1.58;;;;;;;11.50;85.93;100335.00;10205135;28;20122;-67
2023/11/15 20:30:34;;;;;;;3.00;1.02;;;;;;;11.54;86.16;100348.06;10208644;28;20091;-68
2023/11/15 20:35:39;;;;;;;4.32;1.30;;;;;;;11.46;86.69;100351.38;10206991;28;20043;-66
2023/11/15 20:40:41;;;;;;;4.00;1.40;;;;;;;11.47;87.40;100342.41;10201180;28;20168;-67
2023/11/15 20:45:45;;;;;;;7.30;2.08;;;;;;;11.38;87.72;100343.16;10203918;28;20099;-67
2023/11/15 20:51:09;;;;;;;4.32;1.58;;;;;;;11.28;88.00;100335.91;10194827;28;20583;-67
2023/11/15 20:56:11;;;;;;;5.07;1.70;;;;;;;11.31;87.77;100341.00;10223292;28;20062;-66
2023/11/15 21:01:14;;;;;;;5.65;1.60;;;;;;;11.29;87.53;100345.63;10203028;28;20102;-68
2023/11/15 21:06:18;;;;;;;5.65;1.50;;;;;;;11.31;86.55;100353.47;10198491;28;20102;-67
2023/11/15 21:11:20;;;;;;;2.95;1.25;;;;;;;11.24;86.50;100339.78;10207447;28;20122;-68
2023/11/15 21:16:22;;;;;;;3.42;1.42;;;;;;;11.26;86.33;100350.34;10207480;28;20133;-67
2023/11/15 21:21:24;;;;;;;3.17;1.13;;;;;;;11.26;85.31;100345.88;10201499;28;20773;-67
2023/11/15 21:26:26;;;;;;;2.97;0.90;;;;;;;11.30;84.95;100347.31;10201943;28;20162;-66
2023/11/15 21:31:27;;;;;;;4.20;1.35;;;;;;;11.36;84.72;100355.75;10216972;28;20082;-66
2023/11/15 21:36:30;;;;;;;2.70;0.93;;;;;;;11.41;84.21;100353.56;10201910;28;20055;-67
2023/11/15 21:41:31;;;;;;;2.03;0.85;;;;;;;11.44;84.30;100353.31;10206928;28;20055;-67
2023/11/15 21:46:33;;;;;;;4.53;1.13;;;;;;;11.40;83.63;100354.56;10191049;28;20121;-67
2023/11/15 21:51:36;;;;;;;6.32;1.25;;;;;;;11.32;84.63;100345.38;10200348;28;20055;-71
2023/11/15 21:56:37;;;;;;;2.08;0.80;;;;;;;11.35;84.75;100338.06;10202251;28;20066;-71
2023/11/15 22:01:39;;;;;;;2.00;0.80;;;;;;;11.43;84.21;100332.97;10209826;28;20066;-70
2023/11/15 22:06:41;;;;;;;2.70;0.75;;;;;;;11.40;84.77;100319.91;10200685;28;20094;-73
2023/11/15 22:11:59;;;;;;;3.15;1.10;;;;;;;11.43;84.17;100319.66;10198845;28;20060;-64
2023/11/15 22:17:00;;;;;;;1.98;1.02;;;;;;;11.40;84.23;100314.56;10204677;28;20130;-67
2023/11/15 22:22:02;;;;;;;2.08;0.88;;;;;;;11.31;85.04;100322.34;10215728;28;20555;-66
2023/11/15 22:27:04;;;;;;;2.50;0.98;;;;;;;11.30;84.90;100326.00;10211641;28;20058;-67
2023/11/15 22:32:08;;;;;;;2.38;1.50;;;;;;;11.25;84.95;100322.84;10205543;28;20059;-65
2023/11/15 22:37:09;;;;;;;3.43;0.70;;;;;;;11.21;84.46;100324.06;10207818;28;20055;-68
2023/11/15 22:42:11;;;;;;;1.55;0.75;;;;;;;11.15;84.57;100329.91;10211077;28;20086;-66
2023/11/15 22:47:13;;;;;;;4.22;1.20;;;;;;;11.21;84.48;100331.22;10209281;28;20079;-67
2023/11/15 22:52:15;;;;;;;3.40;1.10;;;;;;;11.20;83.92;100330.38;10216446;28;20143;-65
2023/11/15 22:57:16;;;;;;;3.60;1.40;;;;;;;11.19;83.83;100334.00;10207052;28;20548;-67
2023/11/15 23:02:17;;;;;;;3.53;0.90;;;;;;;11.15;83.53;100332.56;10206247;28;20051;-67
2023/11/15 23:07:20;;;;;;;2.45;0.90;;;;;;;11.05;83.32;100326.28;10206061;28;20058;-67
2023/11/15 23:12:22;;;;;;;3.13;1.27;;;;;;;10.99;83.49;100330.31;10204254;28;20582;-67
2023/11/15 23:17:25;;;;;;;2.85;1.20;;;;;;;10.96;83.28;100331.41;10204917;28;20136;-67
2023/11/15 23:22:26;;;;;;;2.42;0.90;;;;;;;10.94;83.02;100324.50;10198124;28;20046;-67